Time;durP1;ratioP1;P1;durP2;ratioP2;P2;SDS_P1;SDS_P2;PMS_P1;PMS_P2;Temp;Humidity;BMP_temperature;BMP_pressure;BME280_temperature;BME280_humidity;BME280_pressure;Samples;Min_cycle;Max_cycle;Signal;HPM_P1;HPM_P2
2023/10/21 00:01:17;;;;;;;19.25;8.85;;;;;;;;;;5123344;27;20476;-56
2023/10/21 00:03:44;;;;;;;18.85;8.10;;;;;;;;;;5142618;27;20128;-54
2023/10/21 00:06:10;;;;;;;13.48;8.43;;;;;;;;;;5144179;27;20162;-56
2023/10/21 00:08:37;;;;;;;14.57;7.93;;;;;;;;;;5124779;27;20047;-53
2023/10/21 00:11:04;;;;;;;18.50;8.98;;;;;;;;;;5127429;27;20052;-55
2023/10/21 00:13:31;;;;;;;19.40;9.50;;;;;;;;;;5122342;27;20062;-56
2023/10/21 00:15:57;;;;;;;12.38;8.25;;;;;;;;;;5122490;27;20620;-56
2023/10/21 00:18:25;;;;;;;22.25;8.18;;;;;;;;;;5133235;27;20075;-56
2023/10/21 00:20:53;;;;;;;12.40;8.35;;;;;;;;;;5129461;27;20062;-53
2023/10/21 00:23:21;;;;;;;19.50;7.95;;;;;;;;;;5122556;27;20168;-56
2023/10/21 00:25:47;;;;;;;14.60;8.05;;;;;;;;;;5126244;27;20506;-54
2023/10/21 00:28:14;;;;;;;18.42;8.68;;;;;;;;;;5143238;27;20048;-56
2023/10/21 00:30:45;;;;;;;16.42;9.07;;;;;;;;;;5140437;27;20066;-52
2023/10/21 00:33:12;;;;;;;14.63;8.65;;;;;;;;;;5142593;27;20055;-55
2023/10/21 00:35:39;;;;;;;13.77;7.60;;;;;;;;;;5132139;27;20058;-55
2023/10/21 00:38:06;;;;;;;16.98;7.72;;;;;;;;;;5142373;27;20052;-56
2023/10/21 00:40:33;;;;;;;16.92;7.95;;;;;;;;;;5142529;27;20546;-55
2023/10/21 00:42:59;;;;;;;16.00;8.07;;;;;;;;;;5128298;27;20114;-52
2023/10/21 00:45:26;;;;;;;16.15;8.35;;;;;;;;;;5143604;27;20104;-55
2023/10/21 00:47:52;;;;;;;13.82;8.10;;;;;;;;;;5126619;27;20576;-54
2023/10/21 00:50:20;;;;;;;18.80;8.27;;;;;;;;;;5146135;27;20055;-55
2023/10/21 00:52:47;;;;;;;13.32;8.68;;;;;;;;;;5129164;27;20061;-56
2023/10/21 00:55:14;;;;;;;23.83;9.02;;;;;;;;;;5126396;27;20108;-56
2023/10/21 00:57:40;;;;;;;15.45;8.45;;;;;;;;;;5145734;27;20226;-56
2023/10/21 01:00:13;;;;;;;18.67;8.48;;;;;;;;;;5128889;27;20640;-53
2023/10/21 01:02:42;;;;;;;14.30;8.18;;;;;;;;;;5125053;27;20059;-55
2023/10/21 01:05:08;;;;;;;14.13;9.18;;;;;;;;;;5133947;27;20051;-55
2023/10/21 01:07:35;;;;;;;17.05;8.70;;;;;;;;;;5145526;27;20074;-56
2023/10/21 01:10:04;;;;;;;19.60;8.45;;;;;;;;;;5137824;27;20052;-55
2023/10/21 01:12:31;;;;;;;21.02;9.50;;;;;;;;;;5125470;27;20071;-56
2023/10/21 01:14:57;;;;;;;12.57;7.65;;;;;;;;;;5125339;27;20048;-56
2023/10/21 01:17:24;;;;;;;15.80;7.72;;;;;;;;;;5122964;27;20535;-55
2023/10/21 01:19:50;;;;;;;19.13;8.18;;;;;;;;;;5134294;27;20528;-56
2023/10/21 01:22:16;;;;;;;13.68;7.82;;;;;;;;;;5146965;27;20487;-55
2023/10/21 01:24:43;;;;;;;13.10;8.38;;;;;;;;;;5135053;27;20089;-56
2023/10/21 01:27:09;;;;;;;18.02;7.57;;;;;;;;;;5139278;27;20054;-55
2023/10/21 01:29:37;;;;;;;15.20;8.10;;;;;;;;;;5133103;27;20051;-56
2023/10/21 01:32:04;;;;;;;14.95;8.43;;;;;;;;;;5128256;27;20108;-53
2023/10/21 01:34:30;;;;;;;12.13;7.93;;;;;;;;;;5144183;27;20043;-56
2023/10/21 01:36:56;;;;;;;16.10;7.97;;;;;;;;;;5130966;27;20665;-55
2023/10/21 01:39:23;;;;;;;24.58;8.20;;;;;;;;;;5125114;27;20047;-55
2023/10/21 01:41:49;;;;;;;13.32;7.88;;;;;;;;;;5137833;27;20127;-54
2023/10/21 01:44:16;;;;;;;12.43;7.70;;;;;;;;;;5145977;27;20078;-56
2023/10/21 01:46:42;;;;;;;19.42;7.78;;;;;;;;;;5128859;27;20116;-56
2023/10/21 01:49:08;;;;;;;14.85;8.07;;;;;;;;;;5124570;27;20093;-55
2023/10/21 01:51:35;;;;;;;18.80;8.68;;;;;;;;;;5127944;27;20475;-56
2023/10/21 01:54:01;;;;;;;15.23;7.65;;;;;;;;;;5146092;27;20119;-54
2023/10/21 01:56:28;;;;;;;15.02;7.55;;;;;;;;;;5143744;27;20135;-54
2023/10/21 01:58:55;;;;;;;14.55;8.60;;;;;;;;;;5138864;27;20051;-54
2023/10/21 02:01:21;;;;;;;13.77;8.15;;;;;;;;;;5123894;27;20051;-53
2023/10/21 02:03:48;;;;;;;13.95;7.53;;;;;;;;;;5143182;27;20055;-54
2023/10/21 02:06:14;;;;;;;12.98;8.05;;;;;;;;;;5145126;27;20062;-53
2023/10/21 02:08:40;;;;;;;14.18;7.28;;;;;;;;;;5140917;27;20059;-56
2023/10/21 02:11:08;;;;;;;13.65;7.22;;;;;;;;;;5140048;27;20100;-52
2023/10/21 02:13:34;;;;;;;14.40;7.47;;;;;;;;;;5142733;27;20071;-53
2023/10/21 02:16:00;;;;;;;19.65;9.63;;;;;;;;;;5139357;27;20116;-55
2023/10/21 02:18:27;;;;;;;11.63;7.03;;;;;;;;;;5128527;27;20128;-55
2023/10/21 02:20:54;;;;;;;13.75;7.15;;;;;;;;;;5132476;27;20440;-56
2023/10/21 02:23:21;;;;;;;19.20;8.10;;;;;;;;;;5144272;27;20087;-53
2023/10/21 02:25:58;;;;;;;12.68;7.60;;;;;;;;;;5144649;27;20047;-54
2023/10/21 02:28:24;;;;;;;13.63;6.95;;;;;;;;;;5133251;27;20132;-56
2023/10/21 02:30:50;;;;;;;15.48;7.78;;;;;;;;;;5131197;27;20526;-56
2023/10/21 02:33:17;;;;;;;18.35;8.13;;;;;;;;;;5124154;27;20144;-57
2023/10/21 02:35:43;;;;;;;10.65;7.28;;;;;;;;;;5134962;27;20059;-55
2023/10/21 02:38:10;;;;;;;14.18;7.32;;;;;;;;;;5124313;27;20058;-56
2023/10/21 02:40:40;;;;;;;14.48;7.70;;;;;;;;;;5139704;27;20116;-57
2023/10/21 02:43:07;;;;;;;9.50;7.50;;;;;;;;;;5139447;27;20104;-55
2023/10/21 02:45:33;;;;;;;13.15;7.07;;;;;;;;;;5141455;27;20551;-54
2023/10/21 02:48:00;;;;;;;14.18;7.53;;;;;;;;;;5124617;27;20146;-56
2023/10/21 02:50:26;;;;;;;17.02;7.90;;;;;;;;;;5140443;27;20427;-54
2023/10/21 02:52:53;;;;;;;13.75;7.78;;;;;;;;;;5143246;27;20432;-56
2023/10/21 02:55:19;;;;;;;12.85;8.20;;;;;;;;;;5139766;27;20128;-55
2023/10/21 02:57:46;;;;;;;13.60;7.57;;;;;;;;;;5131843;27;20641;-56
2023/10/21 03:00:15;;;;;;;14.48;7.70;;;;;;;;;;5138562;27;20573;-57
2023/10/21 03:02:42;;;;;;;13.00;7.22;;;;;;;;;;5137623;27;20055;-53
2023/10/21 03:05:08;;;;;;;12.05;8.32;;;;;;;;;;5137319;27;20488;-55
2023/10/21 03:07:35;;;;;;;12.93;8.32;;;;;;;;;;5142436;27;20509;-55
2023/10/21 03:10:03;;;;;;;15.43;8.45;;;;;;;;;;5131597;27;20535;-55
2023/10/21 03:12:29;;;;;;;17.70;8.48;;;;;;;;;;5138862;27;20047;-54
2023/10/21 03:14:56;;;;;;;14.27;8.50;;;;;;;;;;5143495;27;20594;-57
2023/10/21 03:17:22;;;;;;;14.15;8.20;;;;;;;;;;5143780;27;20047;-57
2023/10/21 03:19:49;;;;;;;14.65;8.02;;;;;;;;;;5137425;27;20055;-55
2023/10/21 03:22:15;;;;;;;15.13;8.73;;;;;;;;;;5125507;27;20075;-54
2023/10/21 03:24:42;;;;;;;18.25;8.13;;;;;;;;;;5122658;27;20056;-56
2023/10/21 03:27:08;;;;;;;15.18;8.55;;;;;;;;;;5128152;27;20578;-57
2023/10/21 03:29:34;;;;;;;15.82;8.00;;;;;;;;;;5135909;27;20540;-56
2023/10/21 03:32:01;;;;;;;19.08;8.63;;;;;;;;;;5127972;27;20082;-56
2023/10/21 03:34:27;;;;;;;16.20;7.43;;;;;;;;;;5138119;27;20152;-55
2023/10/21 03:36:54;;;;;;;14.05;8.30;;;;;;;;;;5130076;27;20046;-57
2023/10/21 03:39:21;;;;;;;16.52;7.72;;;;;;;;;;5142937;27;20139;-56
2023/10/21 03:41:47;;;;;;;11.35;7.60;;;;;;;;;;5143753;27;20051;-55
2023/10/21 03:44:14;;;;;;;16.92;7.72;;;;;;;;;;5143196;27;20467;-57
2023/10/21 03:46:40;;;;;;;14.82;8.00;;;;;;;;;;5134377;27;20098;-56
2023/10/21 03:49:07;;;;;;;18.00;8.43;;;;;;;;;;5126877;27;20094;-54
2023/10/21 03:51:34;;;;;;;13.68;8.35;;;;;;;;;;5141984;27;20067;-56
2023/10/21 03:54:01;;;;;;;15.77;8.35;;;;;;;;;;5136125;27;20047;-56
2023/10/21 03:56:28;;;;;;;16.83;8.40;;;;;;;;;;5131155;27;20513;-56
2023/10/21 03:58:54;;;;;;;13.43;8.20;;;;;;;;;;5137255;27;20052;-56
2023/10/21 04:01:21;;;;;;;13.82;8.52;;;;;;;;;;5123080;27;20481;-53
2023/10/21 04:03:47;;;;;;;17.13;8.20;;;;;;;;;;5142007;27;20051;-55
2023/10/21 04:06:16;;;;;;;12.48;7.68;;;;;;;;;;5129806;27;20051;-56
2023/10/21 04:08:42;;;;;;;13.80;8.00;;;;;;;;;;5130936;27;20108;-56
2023/10/21 04:11:08;;;;;;;11.55;7.95;;;;;;;;;;5136126;27;20306;-55
2023/10/21 04:13:35;;;;;;;9.85;6.97;;;;;;;;;;5123646;27;20052;-56
2023/10/21 04:16:03;;;;;;;16.42;7.78;;;;;;;;;;5123046;27;20545;-56
2023/10/21 04:18:29;;;;;;;13.70;7.47;;;;;;;;;;5130090;27;20055;-54
2023/10/21 04:20:56;;;;;;;12.30;8.02;;;;;;;;;;5142157;27;20083;-54
2023/10/21 04:23:22;;;;;;;11.38;7.57;;;;;;;;;;5126775;27;20051;-57
2023/10/21 04:25:49;;;;;;;13.25;8.02;;;;;;;;;;5125094;27;20051;-55
2023/10/21 04:28:15;;;;;;;12.35;7.88;;;;;;;;;;5146330;27;20086;-55
2023/10/21 04:30:44;;;;;;;12.07;7.82;;;;;;;;;;5144747;27;20062;-56
2023/10/21 04:33:10;;;;;;;16.35;8.65;;;;;;;;;;5146654;27;20129;-57
2023/10/21 04:35:37;;;;;;;14.15;8.18;;;;;;;;;;5125808;27;20048;-57
2023/10/21 04:38:04;;;;;;;16.42;8.05;;;;;;;;;;5126794;27;20059;-56
2023/10/21 04:40:30;;;;;;;15.32;9.05;;;;;;;;;;5132715;27;20497;-55
2023/10/21 04:42:56;;;;;;;17.73;9.32;;;;;;;;;;5145201;27;20495;-57
2023/10/21 04:45:23;;;;;;;11.15;7.68;;;;;;;;;;5140969;27;20051;-53
2023/10/21 04:47:51;;;;;;;16.38;7.75;;;;;;;;;;5136785;27;20051;-56
2023/10/21 04:50:17;;;;;;;13.70;8.35;;;;;;;;;;5135506;27;20642;-56
2023/10/21 04:52:45;;;;;;;12.27;7.25;;;;;;;;;;5129581;27;20050;-57
2023/10/21 04:55:11;;;;;;;15.82;8.25;;;;;;;;;;5141827;27;20047;-56
2023/10/21 04:57:38;;;;;;;12.77;7.32;;;;;;;;;;5130459;27;20058;-57
2023/10/21 05:00:06;;;;;;;15.95;8.00;;;;;;;;;;5113440;27;20464;-56
2023/10/21 05:02:32;;;;;;;19.45;8.70;;;;;;;;;;5134316;27;20449;-57
2023/10/21 05:05:00;;;;;;;17.27;8.13;;;;;;;;;;5125910;27;20048;-53
2023/10/21 05:07:26;;;;;;;11.80;7.80;;;;;;;;;;5125089;27;20056;-56
2023/10/21 05:09:53;;;;;;;20.33;7.93;;;;;;;;;;5137163;27;20502;-56
2023/10/21 05:12:20;;;;;;;12.55;7.43;;;;;;;;;;5137638;27;20115;-55
2023/10/21 05:14:46;;;;;;;18.42;7.82;;;;;;;;;;5141117;27;20054;-56
2023/10/21 05:17:13;;;;;;;16.35;8.50;;;;;;;;;;5146170;27;20057;-56
2023/10/21 05:19:39;;;;;;;14.70;7.50;;;;;;;;;;5137668;27;20133;-56
2023/10/21 05:22:06;;;;;;;11.15;7.75;;;;;;;;;;5134499;27;20146;-55
2023/10/21 05:24:32;;;;;;;16.65;7.78;;;;;;;;;;5125177;27;20597;-56
2023/10/21 05:26:59;;;;;;;13.52;7.32;;;;;;;;;;5125920;27;20061;-53
2023/10/21 05:29:26;;;;;;;14.93;7.63;;;;;;;;;;5109828;27;20077;-55
2023/10/21 05:31:53;;;;;;;11.52;6.75;;;;;;;;;;5142691;27;20570;-55
2023/10/21 05:34:19;;;;;;;15.23;7.50;;;;;;;;;;5138109;27;20052;-56
2023/10/21 05:36:46;;;;;;;12.77;7.53;;;;;;;;;;5134289;27;20055;-56
2023/10/21 05:39:13;;;;;;;12.50;7.18;;;;;;;;;;5135032;27;20047;-53
2023/10/21 05:41:40;;;;;;;20.65;8.13;;;;;;;;;;5131182;27;20143;-55
2023/10/21 05:44:07;;;;;;;13.55;7.53;;;;;;;;;;5135759;27;20506;-53
2023/10/21 05:46:33;;;;;;;13.93;7.50;;;;;;;;;;5145064;27;20055;-55
2023/10/21 05:49:01;;;;;;;15.07;7.05;;;;;;;;;;5128410;27;20054;-55
2023/10/21 05:51:27;;;;;;;18.67;8.15;;;;;;;;;;5142780;27;20047;-52
2023/10/21 05:53:54;;;;;;;11.43;7.60;;;;;;;;;;5144324;27;20142;-53
2023/10/21 05:56:20;;;;;;;14.68;7.22;;;;;;;;;;5144392;27;20055;-55
2023/10/21 05:58:47;;;;;;;10.25;7.07;;;;;;;;;;5131986;27;20058;-55
2023/10/21 06:01:15;;;;;;;14.85;7.82;;;;;;;;;;5129395;27;20055;-54
2023/10/21 06:03:41;;;;;;;11.57;7.15;;;;;;;;;;5143878;27;20059;-56
2023/10/21 06:06:08;;;;;;;13.20;7.05;;;;;;;;;;5135721;27;20058;-55
2023/10/21 06:08:34;;;;;;;15.57;7.57;;;;;;;;;;5139819;27;20331;-55
2023/10/21 06:11:01;;;;;;;15.70;6.55;;;;;;;;;;5127405;27;20590;-55
2023/10/21 06:13:27;;;;;;;16.20;7.38;;;;;;;;;;5142188;27;20100;-54
2023/10/21 06:15:54;;;;;;;14.63;6.82;;;;;;;;;;5125991;27;20541;-55
2023/10/21 06:18:20;;;;;;;18.08;7.80;;;;;;;;;;5141945;27;20622;-54
2023/10/21 06:20:50;;;;;;;15.20;7.75;;;;;;;;;;5143311;27;20580;-55
2023/10/21 06:23:17;;;;;;;16.65;7.40;;;;;;;;;;5142678;27;20150;-56
2023/10/21 06:25:44;;;;;;;12.90;7.20;;;;;;;;;;5130289;27;20043;-57
2023/10/21 06:28:12;;;;;;;17.65;7.50;;;;;;;;;;5140115;27;20138;-54
2023/10/21 06:30:42;;;;;;;15.63;7.65;;;;;;;;;;5142103;27;20589;-53
2023/10/21 06:33:09;;;;;;;15.02;7.53;;;;;;;;;;5138918;27;20508;-56
2023/10/21 06:35:36;;;;;;;12.63;7.00;;;;;;;;;;5138404;27;20483;-56
2023/10/21 06:38:04;;;;;;;16.30;6.78;;;;;;;;;;5136827;27;20052;-57
2023/10/21 06:40:30;;;;;;;18.20;6.85;;;;;;;;;;5137365;27;20059;-56
2023/10/21 06:43:12;;;;;;;16.98;7.40;;;;;;;;;;5141628;27;20108;-56
2023/10/21 06:45:39;;;;;;;14.55;7.32;;;;;;;;;;5122526;27;20081;-55
2023/10/21 06:48:06;;;;;;;16.80;7.28;;;;;;;;;;5144354;27;20675;-58
2023/10/21 06:50:33;;;;;;;13.68;7.40;;;;;;;;;;5132832;27;20062;-55
2023/10/21 06:53:00;;;;;;;15.07;6.80;;;;;;;;;;5141790;27;20414;-54
2023/10/21 06:55:26;;;;;;;16.55;7.75;;;;;;;;;;5138848;27;20051;-55
2023/10/21 06:57:53;;;;;;;12.23;6.88;;;;;;;;;;5142140;27;20054;-56
2023/10/21 07:00:19;;;;;;;15.73;7.03;;;;;;;;;;5143291;27;20055;-55
2023/10/21 07:02:46;;;;;;;17.10;7.00;;;;;;;;;;5142451;27;20058;-57
2023/10/21 07:05:12;;;;;;;20.90;8.32;;;;;;;;;;5137463;27;20043;-56
2023/10/21 07:07:42;;;;;;;15.00;7.72;;;;;;;;;;5137802;27;20438;-55
2023/10/21 07:10:09;;;;;;;13.57;7.35;;;;;;;;;;5140416;27;20059;-56
2023/10/21 07:12:37;;;;;;;12.35;6.43;;;;;;;;;;5141841;27;20052;-55
2023/10/21 07:15:04;;;;;;;10.73;5.88;;;;;;;;;;5144937;27;20055;-53
2023/10/21 07:17:32;;;;;;;19.67;7.55;;;;;;;;;;5132626;27;20047;-56
2023/10/21 07:19:59;;;;;;;19.17;7.05;;;;;;;;;;5139468;27;20228;-56
2023/10/21 07:22:25;;;;;;;17.52;6.70;;;;;;;;;;5138687;27;20480;-57
2023/10/21 07:24:55;;;;;;;12.52;6.35;;;;;;;;;;5142176;27;20074;-55
2023/10/21 07:27:22;;;;;;;16.35;6.95;;;;;;;;;;5105325;27;20051;-54
2023/10/21 07:29:49;;;;;;;13.77;6.68;;;;;;;;;;5138800;27;20316;-55
2023/10/21 07:32:15;;;;;;;20.08;7.90;;;;;;;;;;5139253;27;20079;-56
2023/10/21 07:34:42;;;;;;;16.50;6.93;;;;;;;;;;5139590;27;20182;-55
2023/10/21 07:37:08;;;;;;;12.95;5.88;;;;;;;;;;5138477;27;20055;-55
2023/10/21 07:39:35;;;;;;;9.63;6.22;;;;;;;;;;5140494;27;20096;-56
2023/10/21 07:42:02;;;;;;;15.38;7.20;;;;;;;;;;5134065;27;20395;-55
2023/10/21 07:44:29;;;;;;;12.20;6.45;;;;;;;;;;5143502;27;20135;-55
2023/10/21 07:46:55;;;;;;;11.70;6.53;;;;;;;;;;5139754;27;20087;-53
2023/10/21 07:49:23;;;;;;;15.25;7.15;;;;;;;;;;5142045;27;20104;-53
2023/10/21 07:51:49;;;;;;;10.30;6.03;;;;;;;;;;5124839;27;20122;-56
2023/10/21 07:54:15;;;;;;;14.85;6.15;;;;;;;;;;5137168;27;20066;-58
2023/10/21 07:56:48;;;;;;;13.65;6.55;;;;;;;;;;5130386;27;20502;-58
2023/10/21 07:59:16;;;;;;;11.63;6.00;;;;;;;;;;5143640;27;20055;-56
2023/10/21 08:01:42;;;;;;;11.80;7.28;;;;;;;;;;5127217;27;20058;-56
2023/10/21 08:04:09;;;;;;;16.42;6.80;;;;;;;;;;5135191;27;20062;-56
2023/10/21 08:06:35;;;;;;;14.05;7.35;;;;;;;;;;5146556;27;20075;-57
2023/10/21 08:09:04;;;;;;;9.60;6.93;;;;;;;;;;5147731;27;20646;-57
2023/10/21 08:11:31;;;;;;;11.90;7.05;;;;;;;;;;5144025;27;20098;-53
2023/10/21 08:13:58;;;;;;;17.73;6.35;;;;;;;;;;5134550;27;20052;-57
2023/10/21 08:16:24;;;;;;;14.73;6.95;;;;;;;;;;5131458;27;20506;-57
2023/10/21 08:18:51;;;;;;;9.55;6.68;;;;;;;;;;5147331;27;20059;-54
2023/10/21 08:21:18;;;;;;;11.02;6.30;;;;;;;;;;5142285;27;20059;-58
2023/10/21 08:23:44;;;;;;;7.38;5.40;;;;;;;;;;5145155;27;20057;-56
2023/10/21 08:26:11;;;;;;;11.85;5.70;;;;;;;;;;5146196;27;20086;-57
2023/10/21 08:28:37;;;;;;;7.80;5.40;;;;;;;;;;5144684;27;20541;-54
2023/10/21 08:31:04;;;;;;;11.38;5.78;;;;;;;;;;5125981;27;20090;-57
2023/10/21 08:33:30;;;;;;;7.18;5.47;;;;;;;;;;5141594;27;20051;-55
2023/10/21 08:35:57;;;;;;;9.25;5.13;;;;;;;;;;5146576;27;20138;-55
2023/10/21 08:38:23;;;;;;;9.20;4.35;;;;;;;;;;5146423;27;20186;-54
2023/10/21 08:40:50;;;;;;;4.63;3.38;;;;;;;;;;5137735;27;20600;-55
2023/10/21 08:43:21;;;;;;;4.18;2.95;;;;;;;;;;5144064;27;20048;-54
2023/10/21 08:45:48;;;;;;;3.72;2.78;;;;;;;;;;5145557;27;20055;-56
2023/10/21 08:48:16;;;;;;;4.75;2.70;;;;;;;;;;5146019;27;20089;-53
2023/10/21 08:50:43;;;;;;;6.32;2.83;;;;;;;;;;5144956;27;20047;-54
2023/10/21 08:53:13;;;;;;;3.90;2.40;;;;;;;;;;5126480;27;20101;-57
2023/10/21 08:55:39;;;;;;;3.40;2.22;;;;;;;;;;5106810;27;20354;-52
2023/10/21 08:58:06;;;;;;;2.00;1.80;;;;;;;;;;5135028;27;20047;-53
2023/10/21 09:00:33;;;;;;;3.22;1.67;;;;;;;;;;5141791;27;20079;-54
2023/10/21 09:03:01;;;;;;;3.50;1.80;;;;;;;;;;5126085;27;20073;-56
2023/10/21 09:05:28;;;;;;;1.20;1.10;;;;;;;;;;5142291;27;20051;-55
2023/10/21 09:07:54;;;;;;;2.33;0.95;;;;;;;;;;5146051;27;20565;-53
2023/10/21 09:10:21;;;;;;;0.88;0.82;;;;;;;;;;5135484;27;20043;-59
2023/10/21 09:12:47;;;;;;;1.30;0.88;;;;;;;;;;5125729;27;20561;-54
2023/10/21 09:15:14;;;;;;;1.52;1.10;;;;;;;;;;5125542;27;20536;-53
2023/10/21 09:17:52;;;;;;;3.72;1.67;;;;;;;;;;5138858;27;20051;-55
2023/10/21 09:20:19;;;;;;;2.00;1.00;;;;;;;;;;5144850;27;20059;-54
2023/10/21 09:22:49;;;;;;;2.00;1.00;;;;;;;;;;5145859;27;20670;-54
2023/10/21 09:25:18;;;;;;;1.70;0.82;;;;;;;;;;5146831;27;20051;-52
2023/10/21 09:27:46;;;;;;;1.45;0.90;;;;;;;;;;5145351;27;20128;-55
2023/10/21 09:30:17;;;;;;;6.38;1.10;;;;;;;;;;5144825;27;20047;-57
2023/10/21 09:32:44;;;;;;;2.50;0.70;;;;;;;;;;5139038;27;20486;-56
2023/10/21 09:35:30;;;;;;;2.45;1.00;;;;;;;;;;5143887;27;20524;-57
2023/10/21 09:38:13;;;;;;;1.83;1.00;;;;;;;;;;5145748;27;20043;-57
2023/10/21 09:40:40;;;;;;;3.70;1.05;;;;;;;;;;5130997;27;20066;-54
2023/10/21 09:43:08;;;;;;;3.08;1.00;;;;;;;;;;5145123;27;20043;-55
2023/10/21 09:45:34;;;;;;;2.25;0.90;;;;;;;;;;5145287;27;20082;-54
2023/10/21 09:48:05;;;;;;;4.43;1.10;;;;;;;;;;5142007;27;20051;-53
2023/10/21 09:50:32;;;;;;;1.63;1.05;;;;;;;;;;5140905;27;20054;-54
2023/10/21 09:53:11;;;;;;;2.75;0.90;;;;;;;;;;5141830;27;20444;-55
2023/10/21 09:55:41;;;;;;;1.15;0.80;;;;;;;;;;5133129;27;20479;-53
2023/10/21 09:58:08;;;;;;;1.60;0.90;;;;;;;;;;5111590;27;20047;-52
2023/10/21 10:00:35;;;;;;;1.13;0.98;;;;;;;;;;5141158;27;20459;-56
2023/10/21 10:03:05;;;;;;;3.00;0.90;;;;;;;;;;5125061;27;20493;-56
2023/10/21 10:05:32;;;;;;;0.93;0.82;;;;;;;;;;5124186;27;20056;-56
2023/10/21 10:07:59;;;;;;;2.75;0.95;;;;;;;;;;5141755;27;20561;-56
2023/10/21 10:10:27;;;;;;;1.10;0.73;;;;;;;;;;5142130;27;20455;-56
2023/10/21 10:12:59;;;;;;;2.15;0.70;;;;;;;;;;5144161;27;20414;-56
2023/10/21 10:15:32;;;;;;;2.20;0.68;;;;;;;;;;5131094;27;20116;-55
2023/10/21 10:18:00;;;;;;;1.55;0.82;;;;;;;;;;5144206;27;20047;-56
2023/10/21 10:20:27;;;;;;;2.63;0.90;;;;;;;;;;5138486;27;20056;-55
2023/10/21 10:23:08;;;;;;;4.25;1.00;;;;;;;;;;5143239;27;20112;-55
2023/10/21 10:25:36;;;;;;;2.90;1.40;;;;;;;;;;5138938;27;20150;-55
2023/10/21 10:28:07;;;;;;;2.53;0.90;;;;;;;;;;5126427;27;20506;-56
2023/10/21 10:30:40;;;;;;;1.10;0.80;;;;;;;;;;5123970;27;20058;-56
2023/10/21 10:33:07;;;;;;;2.05;0.93;;;;;;;;;;5128530;27;20047;-58
2023/10/21 10:35:53;;;;;;;1.13;0.85;;;;;;;;;;5143370;27;20134;-59
2023/10/21 10:38:20;;;;;;;2.63;0.85;;;;;;;;;;5125165;27;20058;-58
2023/10/21 10:40:47;;;;;;;3.08;1.00;;;;;;;;;;5137252;27;20057;-58
2023/10/21 10:43:15;;;;;;;1.27;0.63;;;;;;;;;;5138178;27;20054;-57
2023/10/21 10:45:42;;;;;;;2.53;0.80;;;;;;;;;;5132788;27;20047;-59
2023/10/21 10:48:08;;;;;;;3.70;0.98;;;;;;;;;;5124259;27;20067;-56
2023/10/21 10:50:38;;;;;;;2.45;0.75;;;;;;;;;;5123413;27;20132;-57
2023/10/21 10:53:21;;;;;;;1.20;0.73;;;;;;;;;;5123928;27;20375;-57
2023/10/21 10:55:54;;;;;;;2.58;0.52;;;;;;;;;;5141531;27;20055;-56
2023/10/21 10:58:21;;;;;;;2.25;0.90;;;;;;;;;;5138953;27;20048;-57
2023/10/21 11:00:48;;;;;;;1.52;0.90;;;;;;;;;;5123408;27;20051;-56
2023/10/21 11:03:25;;;;;;;3.25;0.75;;;;;;;;;;5143521;27;20061;-58
2023/10/21 11:05:52;;;;;;;2.25;0.93;;;;;;;;;;5130640;27;20592;-59
2023/10/21 11:08:19;;;;;;;1.58;0.60;;;;;;;;;;5144401;27;20086;-58
2023/10/21 11:10:45;;;;;;;3.28;1.00;;;;;;;;;;5131814;27;20183;-57
2023/10/21 11:13:12;;;;;;;3.90;0.88;;;;;;;;;;5144770;27;20536;-58
2023/10/21 11:15:47;;;;;;;1.77;0.65;;;;;;;;;;5143099;27;20051;-58
2023/10/21 11:18:15;;;;;;;4.65;0.60;;;;;;;;;;5143828;27;20586;-58
2023/10/21 11:20:46;;;;;;;1.95;0.60;;;;;;;;;;5137144;27;20097;-59
2023/10/21 11:23:14;;;;;;;2.78;0.73;;;;;;;;;;5143606;27;20154;-59
2023/10/21 11:25:41;;;;;;;5.28;1.40;;;;;;;;;;5143054;27;20067;-58
2023/10/21 11:28:08;;;;;;;2.80;0.90;;;;;;;;;;5142635;27;20051;-55
2023/10/21 11:30:34;;;;;;;4.95;1.08;;;;;;;;;;5141936;27;20120;-59
2023/10/21 11:33:09;;;;;;;2.97;0.93;;;;;;;;;;5123096;27;20052;-58
2023/10/21 11:35:39;;;;;;;4.40;0.80;;;;;;;;;;5123817;27;20059;-59
2023/10/21 11:38:06;;;;;;;5.97;1.00;;;;;;;;;;5142084;27;20051;-58
2023/10/21 11:40:34;;;;;;;5.65;1.35;;;;;;;;;;5132430;27;20097;-58
2023/10/21 11:43:01;;;;;;;4.85;1.00;;;;;;;;;;5136385;27;20055;-58
2023/10/21 11:45:30;;;;;;;5.13;1.45;;;;;;;;;;5123236;27;20078;-57
2023/10/21 11:48:00;;;;;;;4.50;0.95;;;;;;;;;;5143842;27;20085;-57
2023/10/21 11:50:33;;;;;;;4.93;1.55;;;;;;;;;;5142823;27;20047;-58
2023/10/21 11:53:03;;;;;;;4.38;0.90;;;;;;;;;;5125176;27;20570;-60
2023/10/21 12:04:29;;;;;;;5.03;1.10;;;;;;;;;;5122904;27;20051;-57
2023/10/21 12:39:19;;;;;;;4.38;1.33;;;;;;;;;;5142449;27;44945;-57
2023/10/21 12:41:52;;;;;;;3.17;1.10;;;;;;;;;;5135014;27;20094;-58
2023/10/21 12:44:23;;;;;;;7.20;1.80;;;;;;;;;;5126518;27;20059;-57
2023/10/21 12:46:57;;;;;;;4.95;1.13;;;;;;;;;;5133533;27;20055;-58
2023/10/21 12:49:28;;;;;;;7.93;1.40;;;;;;;;;;5125656;27;20150;-58
2023/10/21 12:51:55;;;;;;;3.72;1.10;;;;;;;;;;5133244;27;20055;-57
2023/10/21 12:54:22;;;;;;;5.90;1.25;;;;;;;;;;5126012;27;20517;-57
2023/10/21 12:56:50;;;;;;;5.13;1.58;;;;;;;;;;5137443;27;20122;-55
2023/10/21 12:59:16;;;;;;;8.30;1.38;;;;;;;;;;5139280;27;20490;-57
2023/10/21 13:01:43;;;;;;;5.22;1.25;;;;;;;;;;5132645;27;20230;-58
2023/10/21 13:04:10;;;;;;;4.28;1.15;;;;;;;;;;5147134;27;20122;-57
2023/10/21 13:06:37;;;;;;;7.93;1.80;;;;;;;;;;5112273;27;20056;-55
2023/10/21 13:09:20;;;;;;;3.67;1.30;;;;;;;;;;5115439;27;20047;-57
2023/10/21 13:11:50;;;;;;;7.90;1.30;;;;;;;;;;5106560;27;20583;-58
2023/10/21 13:14:18;;;;;;;2.83;1.17;;;;;;;;;;5125896;27;20087;-58
2023/10/21 13:16:45;;;;;;;6.57;1.65;;;;;;;;;;5145056;27;20055;-58
2023/10/21 13:19:12;;;;;;;4.60;1.65;;;;;;;;;;5131632;27;20642;-58
2023/10/21 13:21:38;;;;;;;6.65;1.63;;;;;;;;;;5130646;27;20141;-56
2023/10/21 13:24:05;;;;;;;5.30;1.20;;;;;;;;;;5127263;27;20563;-59
2023/10/21 13:26:32;;;;;;;5.93;1.23;;;;;;;;;;5146392;27;20051;-58
2023/10/21 13:29:01;;;;;;;4.65;1.10;;;;;;;;;;5145949;27;20048;-57
2023/10/21 13:31:27;;;;;;;6.68;1.95;;;;;;;;;;5144859;27;20094;-57
2023/10/21 13:33:54;;;;;;;3.78;1.38;;;;;;;;;;5145434;27;20083;-58
2023/10/21 13:36:21;;;;;;;7.50;1.67;;;;;;;;;;5145517;27;20500;-57
2023/10/21 13:38:47;;;;;;;7.03;1.60;;;;;;;;;;5144890;27;20051;-57
2023/10/21 13:41:14;;;;;;;7.28;1.42;;;;;;;;;;5145518;27;20505;-56
2023/10/21 13:43:42;;;;;;;9.05;2.08;;;;;;;;;;5138747;27;20123;-58
2023/10/21 13:46:09;;;;;;;4.97;1.95;;;;;;;;;;5144286;27;20539;-56
2023/10/21 13:48:35;;;;;;;8.43;1.48;;;;;;;;;;5144330;27;20139;-58
2023/10/21 13:51:06;;;;;;;7.85;1.80;;;;;;;;;;5138683;27;20120;-58
2023/10/21 13:53:33;;;;;;;6.72;1.63;;;;;;;;;;5135887;27;20067;-58
2023/10/21 13:56:00;;;;;;;7.75;1.70;;;;;;;;;;5127437;27;21051;-57
2023/10/21 13:58:27;;;;;;;7.22;1.75;;;;;;;;;;5145046;27;20573;-54
2023/10/21 14:00:53;;;;;;;7.50;1.58;;;;;;;;;;5127803;27;20138;-57
2023/10/21 14:03:21;;;;;;;6.93;2.00;;;;;;;;;;5127263;27;20047;-58
2023/10/21 14:05:49;;;;;;;6.72;1.42;;;;;;;;;;5139434;27;20056;-57
2023/10/21 14:08:19;;;;;;;4.88;1.95;;;;;;;;;;5125543;27;20056;-59
2023/10/21 14:10:47;;;;;;;5.68;1.80;;;;;;;;;;5124264;27;20063;-59
2023/10/21 14:13:19;;;;;;;5.15;1.33;;;;;;;;;;5140430;27;20055;-57
2023/10/21 14:15:49;;;;;;;4.18;1.35;;;;;;;;;;5144256;27;20059;-58
2023/10/21 14:18:16;;;;;;;12.60;2.17;;;;;;;;;;5144111;27;20096;-59
2023/10/21 14:20:43;;;;;;;6.20;1.45;;;;;;;;;;5144695;27;20055;-56
2023/10/21 14:23:12;;;;;;;8.98;2.50;;;;;;;;;;5125905;27;20541;-58
2023/10/21 14:25:39;;;;;;;9.48;1.58;;;;;;;;;;5135597;27;20128;-59
2023/10/21 14:28:13;;;;;;;5.68;1.65;;;;;;;;;;5125887;27;20296;-58
2023/10/21 14:30:41;;;;;;;3.75;1.40;;;;;;;;;;5145476;27;20092;-58
2023/10/21 14:33:11;;;;;;;3.90;1.80;;;;;;;;;;5123439;27;20167;-57
2023/10/21 14:35:38;;;;;;;7.50;2.00;;;;;;;;;;5135454;27;20055;-58
2023/10/21 14:38:06;;;;;;;6.57;1.75;;;;;;;;;;5143873;27;20395;-58
2023/10/21 14:40:32;;;;;;;7.72;1.63;;;;;;;;;;5145186;27;20059;-58
2023/10/21 14:42:59;;;;;;;8.43;2.10;;;;;;;;;;5127863;27;20105;-58
2023/10/21 14:45:26;;;;;;;9.20;1.92;;;;;;;;;;5132277;27;20104;-57
2023/10/21 14:47:52;;;;;;;6.45;1.67;;;;;;;;;;5134847;27;20052;-58
2023/10/21 14:50:19;;;;;;;9.30;2.05;;;;;;;;;;5124661;27;20048;-59
2023/10/21 14:52:45;;;;;;;8.25;1.95;;;;;;;;;;5136863;27;20059;-58
2023/10/21 14:55:12;;;;;;;7.22;1.88;;;;;;;;;;5136165;27;20518;-57
2023/10/21 14:57:38;;;;;;;6.65;1.45;;;;;;;;;;5123300;27;20509;-56
2023/10/21 15:00:05;;;;;;;5.72;1.55;;;;;;;;;;5106028;27;20055;-60
2023/10/21 15:02:33;;;;;;;7.15;1.67;;;;;;;;;;5136848;27;20108;-57
2023/10/21 15:05:00;;;;;;;6.13;1.30;;;;;;;;;;5124801;27;20104;-60
2023/10/21 15:07:26;;;;;;;5.45;1.80;;;;;;;;;;5141867;27;20497;-57
2023/10/21 15:09:53;;;;;;;5.18;1.58;;;;;;;;;;5124104;27;20052;-57
2023/10/21 15:12:19;;;;;;;4.72;1.33;;;;;;;;;;5130540;27;20057;-56
2023/10/21 15:14:46;;;;;;;6.00;2.53;;;;;;;;;;5105454;27;20074;-56
2023/10/21 15:17:25;;;;;;;8.30;1.90;;;;;;;;;;5128686;27;20090;-59
2023/10/21 15:19:51;;;;;;;6.70;1.98;;;;;;;;;;5143783;27;20059;-57